sensor_id;sensor_type;location;lat;lon;timestamp;pressure;altitude;pressure_sealevel;temperature;humidity
19763;BME280;10040;42.614;23.164;2022-07-21T00:00:00;92988.63;;;17.64;67.18
19763;BME280;10040;42.614;23.164;2022-07-21T00:02:31;92985.25;;;17.74;67.22
19763;BME280;10040;42.614;23.164;2022-07-21T00:04:58;92989.22;;;17.80;66.89
19763;BME280;10040;42.614;23.164;2022-07-21T00:07:26;92999.53;;;17.64;67.63
19763;BME280;10040;42.614;23.164;2022-07-21T00:09:53;92987.44;;;17.34;68.40
19763;BME280;10040;42.614;23.164;2022-07-21T00:12:21;92986.97;;;17.29;68.36
19763;BME280;10040;42.614;23.164;2022-07-21T00:14:49;92979.53;;;17.26;68.13
19763;BME280;10040;42.614;23.164;2022-07-21T00:17:16;92979.63;;;17.33;68.05
19763;BME280;10040;42.614;23.164;2022-07-21T00:19:45;92978.47;;;17.34;68.24
19763;BME280;10040;42.614;23.164;2022-07-21T00:22:12;92983.28;;;17.44;67.81
19763;BME280;10040;42.614;23.164;2022-07-21T00:24:40;92969.56;;;17.37;67.50
19763;BME280;10040;42.614;23.164;2022-07-21T00:27:07;92984.13;;;17.48;67.60
19763;BME280;10040;42.614;23.164;2022-07-21T00:29:35;92978.25;;;17.46;67.76
19763;BME280;10040;42.614;23.164;2022-07-21T00:32:02;92981.38;;;17.48;67.68
19763;BME280;10040;42.614;23.164;2022-07-21T00:34:31;92972.06;;;17.49;67.13
19763;BME280;10040;42.614;23.164;2022-07-21T00:37:00;92982.97;;;17.49;67.22
19763;BME280;10040;42.614;23.164;2022-07-21T00:39:28;92974.75;;;17.46;67.20
19763;BME280;10040;42.614;23.164;2022-07-21T00:41:55;92975.09;;;16.91;68.77
19763;BME280;10040;42.614;23.164;2022-07-21T00:44:24;92975.13;;;16.94;68.81
19763;BME280;10040;42.614;23.164;2022-07-21T00:46:52;92976.97;;;17.13;68.36
19763;BME280;10040;42.614;23.164;2022-07-21T00:49:20;92970.06;;;17.19;67.56
19763;BME280;10040;42.614;23.164;2022-07-21T00:51:48;92977.63;;;17.30;67.54
19763;BME280;10040;42.614;23.164;2022-07-21T00:54:18;92982.25;;;17.26;67.50
19763;BME280;10040;42.614;23.164;2022-07-21T00:56:46;92973.88;;;17.15;67.43
19763;BME280;10040;42.614;23.164;2022-07-21T00:59:16;92958.94;;;17.05;67.72
19763;BME280;10040;42.614;23.164;2022-07-21T01:01:43;92976.97;;;17.13;67.57
19763;BME280;10040;42.614;23.164;2022-07-21T01:04:11;92979.28;;;17.11;67.92
19763;BME280;10040;42.614;23.164;2022-07-21T01:06:38;92970.59;;;17.02;68.19
19763;BME280;10040;42.614;23.164;2022-07-21T01:09:06;92970.03;;;17.16;67.64
19763;BME280;10040;42.614;23.164;2022-07-21T01:11:35;92967.97;;;17.09;67.90
19763;BME280;10040;42.614;23.164;2022-07-21T01:14:03;92941.91;;;16.85;68.07
19763;BME280;10040;42.614;23.164;2022-07-21T01:16:31;92966.75;;;16.83;68.33
19763;BME280;10040;42.614;23.164;2022-07-21T01:18:58;92965.56;;;16.81;68.83
19763;BME280;10040;42.614;23.164;2022-07-21T01:21:30;92958.31;;;16.65;69.21
19763;BME280;10040;42.614;23.164;2022-07-21T01:23:59;92955.34;;;16.74;69.15
19763;BME280;10040;42.614;23.164;2022-07-21T01:26:27;92976.56;;;16.65;69.26
19763;BME280;10040;42.614;23.164;2022-07-21T01:28:55;92936.38;;;16.58;68.90
19763;BME280;10040;42.614;23.164;2022-07-21T01:31:23;92952.44;;;16.87;68.55
19763;BME280;10040;42.614;23.164;2022-07-21T01:34:10;92954.38;;;16.86;68.39
19763;BME280;10040;42.614;23.164;2022-07-21T01:36:39;92954.38;;;16.63;68.91
19763;BME280;10040;42.614;23.164;2022-07-21T01:39:07;92958.97;;;16.59;69.00
19763;BME280;10040;42.614;23.164;2022-07-21T01:41:51;92944.13;;;16.56;69.54
19763;BME280;10040;42.614;23.164;2022-07-21T01:44:19;92906.44;;;16.35;69.22
19763;BME280;10040;42.614;23.164;2022-07-21T01:46:49;92951.22;;;16.61;69.44
19763;BME280;10040;42.614;23.164;2022-07-21T01:49:18;92975.41;;;16.43;69.64
19763;BME280;10040;42.614;23.164;2022-07-21T01:51:48;92920.19;;;16.42;69.44
19763;BME280;10040;42.614;23.164;2022-07-21T01:54:16;92948.75;;;16.75;69.08
19763;BME280;10040;42.614;23.164;2022-07-21T01:56:43;92947.53;;;16.73;69.24
19763;BME280;10040;42.614;23.164;2022-07-21T01:59:11;92946.19;;;16.63;68.52
19763;BME280;10040;42.614;23.164;2022-07-21T02:01:38;92952.16;;;16.69;69.06
19763;BME280;10040;42.614;23.164;2022-07-21T02:04:06;92947.53;;;16.73;68.61
19763;BME280;10040;42.614;23.164;2022-07-21T02:06:53;92946.63;;;16.65;68.69
19763;BME280;10040;42.614;23.164;2022-07-21T02:09:20;92945.59;;;16.50;69.08
19763;BME280;10040;42.614;23.164;2022-07-21T02:11:48;92935.56;;;16.54;69.17
19763;BME280;10040;42.614;23.164;2022-07-21T02:14:15;92944.50;;;16.55;68.91
19763;BME280;10040;42.614;23.164;2022-07-21T02:16:43;92943.22;;;16.49;68.68
19763;BME280;10040;42.614;23.164;2022-07-21T02:19:10;92947.47;;;16.46;69.40
19763;BME280;10040;42.614;23.164;2022-07-21T02:21:38;92949.31;;;16.42;69.42
19763;BME280;10040;42.614;23.164;2022-07-21T02:24:07;92938.88;;;16.21;70.56
19763;BME280;10040;42.614;23.164;2022-07-21T02:26:34;92939.88;;;16.13;70.65
19763;BME280;10040;42.614;23.164;2022-07-21T02:29:02;92939.22;;;16.19;70.16
19763;BME280;10040;42.614;23.164;2022-07-21T02:31:29;92933.53;;;16.28;69.47
19763;BME280;10040;42.614;23.164;2022-07-21T02:33:57;92941.66;;;16.24;69.66
19763;BME280;10040;42.614;23.164;2022-07-21T02:36:24;92968.50;;;16.06;70.00
19763;BME280;10040;42.614;23.164;2022-07-21T02:38:51;92937.34;;;15.81;71.36
19763;BME280;10040;42.614;23.164;2022-07-21T02:41:20;92944.16;;;15.75;71.45
19763;BME280;10040;42.614;23.164;2022-07-21T02:43:48;92946.50;;;15.92;71.50
19763;BME280;10040;42.614;23.164;2022-07-21T02:46:15;92942.47;;;16.05;70.59
19763;BME280;10040;42.614;23.164;2022-07-21T02:48:42;92936.44;;;16.16;70.34
19763;BME280;10040;42.614;23.164;2022-07-21T02:51:10;92934.38;;;15.89;71.08
19763;BME280;10040;42.614;23.164;2022-07-21T02:53:37;92932.03;;;15.88;71.47
19763;BME280;10040;42.614;23.164;2022-07-21T02:56:05;92924.22;;;15.86;71.13
19763;BME280;10040;42.614;23.164;2022-07-21T02:58:34;92938.47;;;15.99;70.60
19763;BME280;10040;42.614;23.164;2022-07-21T03:01:03;92942.09;;;16.07;70.53
19763;BME280;10040;42.614;23.164;2022-07-21T03:03:33;92945.69;;;16.11;70.63
19763;BME280;10040;42.614;23.164;2022-07-21T03:06:02;92937.59;;;15.95;70.56
19763;BME280;10040;42.614;23.164;2022-07-21T03:08:30;92946.09;;;15.94;70.06
19763;BME280;10040;42.614;23.164;2022-07-21T03:10:57;92941.06;;;15.57;71.28
19763;BME280;10040;42.614;23.164;2022-07-21T03:13:25;92912.25;;;15.52;71.72
19763;BME280;10040;42.614;23.164;2022-07-21T03:15:53;92936.22;;;15.66;71.16
19763;BME280;10040;42.614;23.164;2022-07-21T03:18:21;92916.47;;;15.49;71.84
19763;BME280;10040;42.614;23.164;2022-07-21T03:20:48;92948.94;;;15.62;71.85
19763;BME280;10040;42.614;23.164;2022-07-21T03:23:16;92942.44;;;15.66;72.08
19763;BME280;10040;42.614;23.164;2022-07-21T03:25:43;92892.19;;;15.37;71.72
19763;BME280;10040;42.614;23.164;2022-07-21T03:28:10;92952.41;;;15.78;71.38
19763;BME280;10040;42.614;23.164;2022-07-21T03:30:39;92960.06;;;15.72;71.07
19763;BME280;10040;42.614;23.164;2022-07-21T03:33:08;92935.88;;;15.67;71.79
19763;BME280;10040;42.614;23.164;2022-07-21T03:35:35;92964.25;;;15.50;72.20
19763;BME280;10040;42.614;23.164;2022-07-21T03:38:03;92947.84;;;15.47;72.16
19763;BME280;10040;42.614;23.164;2022-07-21T03:40:33;92946.44;;;15.53;72.88
19763;BME280;10040;42.614;23.164;2022-07-21T03:43:04;92952.91;;;15.64;72.36
19763;BME280;10040;42.614;23.164;2022-07-21T03:45:33;92969.63;;;15.66;72.94
19763;BME280;10040;42.614;23.164;2022-07-21T03:48:02;92948.66;;;15.67;72.37
19763;BME280;10040;42.614;23.164;2022-07-21T03:50:31;92949.88;;;15.69;72.13
19763;BME280;10040;42.614;23.164;2022-07-21T03:52:59;92954.50;;;15.85;71.95
19763;BME280;10040;42.614;23.164;2022-07-21T03:55:27;92959.94;;;15.85;71.78
19763;BME280;10040;42.614;23.164;2022-07-21T03:57:56;92957.91;;;15.62;72.71
19763;BME280;10040;42.614;23.164;2022-07-21T04:00:25;92957.31;;;15.53;73.26
19763;BME280;10040;42.614;23.164;2022-07-21T04:02:53;92962.78;;;15.72;73.47
19763;BME280;10040;42.614;23.164;2022-07-21T04:05:21;92973.88;;;15.83;73.67
19763;BME280;10040;42.614;23.164;2022-07-21T04:07:51;92984.47;;;15.88;73.13
19763;BME280;10040;42.614;23.164;2022-07-21T04:10:21;92971.88;;;15.80;73.22
19763;BME280;10040;42.614;23.164;2022-07-21T04:12:50;92969.03;;;15.93;73.72
19763;BME280;10040;42.614;23.164;2022-07-21T04:15:18;92950.53;;;15.63;73.42
19763;BME280;10040;42.614;23.164;2022-07-21T04:17:46;92954.34;;;15.78;73.48
19763;BME280;10040;42.614;23.164;2022-07-21T04:20:33;92967.16;;;15.97;74.35
19763;BME280;10040;42.614;23.164;2022-07-21T04:23:03;92981.03;;;16.11;73.87
19763;BME280;10040;42.614;23.164;2022-07-21T04:25:31;92969.22;;;16.23;73.96
19763;BME280;10040;42.614;23.164;2022-07-21T04:27:58;92968.69;;;16.37;73.69
19763;BME280;10040;42.614;23.164;2022-07-21T04:30:26;92970.25;;;16.38;74.26
19763;BME280;10040;42.614;23.164;2022-07-21T04:32:53;92963.81;;;16.46;74.41
19763;BME280;10040;42.614;23.164;2022-07-21T04:35:21;92962.72;;;16.51;74.05
19763;BME280;10040;42.614;23.164;2022-07-21T04:37:49;92965.25;;;16.63;73.28
19763;BME280;10040;42.614;23.164;2022-07-21T04:40:18;92962.47;;;16.82;73.35
19763;BME280;10040;42.614;23.164;2022-07-21T04:42:45;92963.84;;;16.92;72.83
19763;BME280;10040;42.614;23.164;2022-07-21T04:45:15;92967.03;;;16.98;73.47
19763;BME280;10040;42.614;23.164;2022-07-21T04:47:44;92972.34;;;17.14;73.08
19763;BME280;10040;42.614;23.164;2022-07-21T04:50:12;92963.22;;;17.29;72.71
19763;BME280;10040;42.614;23.164;2022-07-21T04:52:40;92967.88;;;17.29;73.11
19763;BME280;10040;42.614;23.164;2022-07-21T04:55:09;92964.03;;;17.33;74.22
19763;BME280;10040;42.614;23.164;2022-07-21T04:57:39;92961.28;;;17.30;75.48
19763;BME280;10040;42.614;23.164;2022-07-21T05:00:08;92975.88;;;17.45;74.74
19763;BME280;10040;42.614;23.164;2022-07-21T05:02:36;92968.00;;;17.66;77.32
19763;BME280;10040;42.614;23.164;2022-07-21T05:05:04;92963.75;;;17.96;75.77
19763;BME280;10040;42.614;23.164;2022-07-21T05:07:32;92968.03;;;17.97;75.21
19763;BME280;10040;42.614;23.164;2022-07-21T05:10:03;92999.03;;;17.85;74.72
19763;BME280;10040;42.614;23.164;2022-07-21T05:12:30;92967.47;;;18.14;73.31
19763;BME280;10040;42.614;23.164;2022-07-21T05:15:00;92970.28;;;18.25;74.71
19763;BME280;10040;42.614;23.164;2022-07-21T05:17:27;92973.72;;;18.18;78.46
19763;BME280;10040;42.614;23.164;2022-07-21T05:19:55;92970.25;;;18.21;76.98
19763;BME280;10040;42.614;23.164;2022-07-21T05:22:22;92959.75;;;18.23;74.00
19763;BME280;10040;42.614;23.164;2022-07-21T05:24:50;92965.81;;;18.43;73.09
19763;BME280;10040;42.614;23.164;2022-07-21T05:27:17;92965.16;;;18.54;73.91
19763;BME280;10040;42.614;23.164;2022-07-21T05:29:44;92971.06;;;18.59;74.01
19763;BME280;10040;42.614;23.164;2022-07-21T05:32:13;92958.63;;;18.65;72.71
19763;BME280;10040;42.614;23.164;2022-07-21T05:34:41;92964.16;;;18.73;73.14
19763;BME280;10040;42.614;23.164;2022-07-21T05:37:08;92972.88;;;18.85;72.53
19763;BME280;10040;42.614;23.164;2022-07-21T05:39:36;92968.22;;;18.90;74.64
19763;BME280;10040;42.614;23.164;2022-07-21T05:42:03;92969.41;;;18.89;77.19
19763;BME280;10040;42.614;23.164;2022-07-21T05:44:31;92976.06;;;18.95;73.10
19763;BME280;10040;42.614;23.164;2022-07-21T05:46:58;92972.34;;;19.14;72.16
19763;BME280;10040;42.614;23.164;2022-07-21T05:49:27;92968.53;;;19.26;69.91
19763;BME280;10040;42.614;23.164;2022-07-21T05:51:54;92970.97;;;19.41;70.83
19763;BME280;10040;42.614;23.164;2022-07-21T05:54:22;92965.56;;;19.49;71.60
19763;BME280;10040;42.614;23.164;2022-07-21T05:56:49;92977.03;;;19.72;71.97
19763;BME280;10040;42.614;23.164;2022-07-21T05:59:17;92975.59;;;19.93;70.66
19763;BME280;10040;42.614;23.164;2022-07-21T06:01:44;92957.22;;;19.93;66.54
19763;BME280;10040;42.614;23.164;2022-07-21T06:04:12;92970.25;;;20.22;68.73
19763;BME280;10040;42.614;23.164;2022-07-21T06:06:41;92970.63;;;20.24;67.30
19763;BME280;10040;42.614;23.164;2022-07-21T06:09:08;92971.47;;;20.49;64.23
19763;BME280;10040;42.614;23.164;2022-07-21T06:11:36;92963.28;;;20.53;61.83
19763;BME280;10040;42.614;23.164;2022-07-21T06:14:03;92968.06;;;20.78;62.77
19763;BME280;10040;42.614;23.164;2022-07-21T06:16:31;92965.69;;;20.69;66.25
19763;BME280;10040;42.614;23.164;2022-07-21T06:18:59;92967.28;;;20.88;66.32
19763;BME280;10040;42.614;23.164;2022-07-21T06:21:27;92957.50;;;21.09;66.05
19763;BME280;10040;42.614;23.164;2022-07-21T06:23:56;92965.31;;;21.46;63.34
19763;BME280;10040;42.614;23.164;2022-07-21T06:26:23;92961.41;;;21.33;59.81
19763;BME280;10040;42.614;23.164;2022-07-21T06:28:51;93008.44;;;21.28;61.62
19763;BME280;10040;42.614;23.164;2022-07-21T06:31:19;92948.09;;;21.42;61.75
19763;BME280;10040;42.614;23.164;2022-07-21T06:33:46;92957.41;;;21.91;64.81
19763;BME280;10040;42.614;23.164;2022-07-21T06:36:14;92961.66;;;22.14;63.68
19763;BME280;10040;42.614;23.164;2022-07-21T06:38:41;92956.47;;;22.34;63.71
19763;BME280;10040;42.614;23.164;2022-07-21T06:41:12;92956.91;;;22.22;58.17
19763;BME280;10040;42.614;23.164;2022-07-21T06:43:39;92965.97;;;22.11;60.72
19763;BME280;10040;42.614;23.164;2022-07-21T06:46:07;92956.88;;;22.36;62.00
19763;BME280;10040;42.614;23.164;2022-07-21T06:48:34;92941.59;;;22.21;60.77
19763;BME280;10040;42.614;23.164;2022-07-21T06:51:01;92953.69;;;22.41;61.38
19763;BME280;10040;42.614;23.164;2022-07-21T06:53:29;92958.75;;;22.53;60.28
19763;BME280;10040;42.614;23.164;2022-07-21T06:55:56;92950.94;;;22.41;60.67
19763;BME280;10040;42.614;23.164;2022-07-21T06:58:25;92964.25;;;22.46;57.00
19763;BME280;10040;42.614;23.164;2022-07-21T07:00:53;92953.13;;;22.71;58.01
19763;BME280;10040;42.614;23.164;2022-07-21T07:03:20;92964.28;;;23.09;59.39
19763;BME280;10040;42.614;23.164;2022-07-21T07:05:48;92968.19;;;23.16;57.50
19763;BME280;10040;42.614;23.164;2022-07-21T07:08:16;92953.88;;;23.35;57.64
19763;BME280;10040;42.614;23.164;2022-07-21T07:10:44;92957.09;;;23.72;56.00
19763;BME280;10040;42.614;23.164;2022-07-21T07:13:12;92956.28;;;23.75;57.68
19763;BME280;10040;42.614;23.164;2022-07-21T07:15:42;92961.06;;;23.67;57.01
19763;BME280;10040;42.614;23.164;2022-07-21T07:18:10;92992.47;;;23.73;55.79
19763;BME280;10040;42.614;23.164;2022-07-21T07:20:37;92958.50;;;24.25;53.85
19763;BME280;10040;42.614;23.164;2022-07-21T07:23:05;92954.88;;;24.32;55.19
19763;BME280;10040;42.614;23.164;2022-07-21T07:25:32;92958.84;;;24.89;54.62
19763;BME280;10040;42.614;23.164;2022-07-21T07:28:00;92937.97;;;24.88;53.47
19763;BME280;10040;42.614;23.164;2022-07-21T07:30:28;92958.84;;;25.16;50.79
19763;BME280;10040;42.614;23.164;2022-07-21T07:32:57;92936.59;;;25.03;48.92
19763;BME280;10040;42.614;23.164;2022-07-21T07:35:24;92952.16;;;24.90;49.78
19763;BME280;10040;42.614;23.164;2022-07-21T07:37:52;92955.66;;;25.45;47.80
19763;BME280;10040;42.614;23.164;2022-07-21T07:40:22;92958.84;;;25.87;46.79
19763;BME280;10040;42.614;23.164;2022-07-21T07:42:50;92961.06;;;25.52;46.44
19763;BME280;10040;42.614;23.164;2022-07-21T07:45:18;92947.06;;;25.39;51.26
19763;BME280;10040;42.614;23.164;2022-07-21T07:47:46;92946.78;;;25.34;50.94
19763;BME280;10040;42.614;23.164;2022-07-21T07:50:45;92952.59;;;25.83;49.13
19763;BME280;10040;42.614;23.164;2022-07-21T07:53:12;92939.59;;;25.83;46.69
19763;BME280;10040;42.614;23.164;2022-07-21T07:55:40;92945.75;;;26.15;47.48
19763;BME280;10040;42.614;23.164;2022-07-21T07:58:07;92940.59;;;24.99;50.70
19763;BME280;10040;42.614;23.164;2022-07-21T08:00:35;92934.16;;;25.33;48.01
19763;BME280;10040;42.614;23.164;2022-07-21T08:03:04;92949.59;;;25.30;49.47
19763;BME280;10040;42.614;23.164;2022-07-21T08:05:31;92934.06;;;25.83;48.52
19763;BME280;10040;42.614;23.164;2022-07-21T08:08:00;92937.31;;;26.22;46.25
19763;BME280;10040;42.614;23.164;2022-07-21T08:10:28;92938.00;;;26.06;48.52
19763;BME280;10040;42.614;23.164;2022-07-21T08:12:55;92931.94;;;25.91;49.65
19763;BME280;10040;42.614;23.164;2022-07-21T08:15:23;92934.94;;;26.40;46.54
19763;BME280;10040;42.614;23.164;2022-07-21T08:17:50;92932.91;;;25.81;45.19
19763;BME280;10040;42.614;23.164;2022-07-21T08:20:17;92931.34;;;26.03;45.99
19763;BME280;10040;42.614;23.164;2022-07-21T08:22:45;92918.13;;;26.88;44.60
19763;BME280;10040;42.614;23.164;2022-07-21T08:25:14;92931.47;;;26.56;45.08
19763;BME280;10040;42.614;23.164;2022-07-21T08:27:41;92933.34;;;26.43;44.54
19763;BME280;10040;42.614;23.164;2022-07-21T08:30:10;92925.25;;;27.05;43.22
19763;BME280;10040;42.614;23.164;2022-07-21T08:32:37;92920.22;;;26.84;45.40
19763;BME280;10040;42.614;23.164;2022-07-21T08:35:06;92920.44;;;26.73;43.36
19763;BME280;10040;42.614;23.164;2022-07-21T08:37:34;92920.34;;;26.97;44.37
19763;BME280;10040;42.614;23.164;2022-07-21T08:40:03;92913.03;;;27.85;45.68
19763;BME280;10040;42.614;23.164;2022-07-21T08:42:32;92921.56;;;28.07;45.08
19763;BME280;10040;42.614;23.164;2022-07-21T08:45:00;92918.84;;;27.58;45.88
19763;BME280;10040;42.614;23.164;2022-07-21T08:47:27;92930.47;;;26.67;48.65
19763;BME280;10040;42.614;23.164;2022-07-21T08:49:55;92915.31;;;26.91;45.47
19763;BME280;10040;42.614;23.164;2022-07-21T08:52:23;92904.75;;;27.19;48.04
19763;BME280;10040;42.614;23.164;2022-07-21T08:54:50;92914.72;;;27.00;45.37
19763;BME280;10040;42.614;23.164;2022-07-21T08:57:18;92910.84;;;27.30;45.07
19763;BME280;10040;42.614;23.164;2022-07-21T08:59:47;92910.97;;;27.56;45.31
19763;BME280;10040;42.614;23.164;2022-07-21T09:02:26;92903.41;;;28.19;43.52
19763;BME280;10040;42.614;23.164;2022-07-21T09:04:54;92906.91;;;27.61;43.40
19763;BME280;10040;42.614;23.164;2022-07-21T09:07:22;92896.53;;;27.65;43.16
19763;BME280;10040;42.614;23.164;2022-07-21T09:09:55;92903.00;;;28.46;43.99
19763;BME280;10040;42.614;23.164;2022-07-21T09:12:23;92897.00;;;28.90;40.63
19763;BME280;10040;42.614;23.164;2022-07-21T09:14:54;92898.53;;;28.65;42.76
19763;BME280;10040;42.614;23.164;2022-07-21T09:17:39;92884.22;;;28.92;40.10
19763;BME280;10040;42.614;23.164;2022-07-21T09:20:25;92895.31;;;28.92;40.19
19763;BME280;10040;42.614;23.164;2022-07-21T09:23:06;92897.22;;;28.70;40.22
19763;BME280;10040;42.614;23.164;2022-07-21T09:25:36;92887.31;;;28.14;39.23
19763;BME280;10040;42.614;23.164;2022-07-21T09:28:09;92891.31;;;28.68;37.95
19763;BME280;10040;42.614;23.164;2022-07-21T09:30:56;92894.09;;;29.06;38.58
19763;BME280;10040;42.614;23.164;2022-07-21T09:33:27;92890.44;;;29.22;38.90
19763;BME280;10040;42.614;23.164;2022-07-21T09:36:01;92866.06;;;29.39;37.24
19763;BME280;10040;42.614;23.164;2022-07-21T09:38:30;92890.69;;;29.63;34.75
19763;BME280;10040;42.614;23.164;2022-07-21T09:41:10;92887.66;;;29.83;37.59
19763;BME280;10040;42.614;23.164;2022-07-21T09:43:41;92897.03;;;29.98;36.91
19763;BME280;10040;42.614;23.164;2022-07-21T09:46:14;92878.06;;;29.84;35.89
19763;BME280;10040;42.614;23.164;2022-07-21T09:48:44;92888.69;;;30.20;35.37
19763;BME280;10040;42.614;23.164;2022-07-21T09:51:26;92891.09;;;29.87;34.75
19763;BME280;10040;42.614;23.164;2022-07-21T09:53:58;92888.91;;;29.21;36.45
19763;BME280;10040;42.614;23.164;2022-07-21T09:56:27;92887.66;;;29.35;36.80
19763;BME280;10040;42.614;23.164;2022-07-21T09:58:55;92883.44;;;29.65;37.74
19763;BME280;10040;42.614;23.164;2022-07-21T10:01:26;92882.38;;;30.20;36.17
19763;BME280;10040;42.614;23.164;2022-07-21T10:03:55;92881.72;;;30.16;35.65
19763;BME280;10040;42.614;23.164;2022-07-21T10:06:24;92879.16;;;30.43;34.61
19763;BME280;10040;42.614;23.164;2022-07-21T10:08:54;92883.38;;;30.57;33.93
19763;BME280;10040;42.614;23.164;2022-07-21T10:11:22;92882.91;;;30.50;34.99
19763;BME280;10040;42.614;23.164;2022-07-21T10:13:49;92880.13;;;30.50;33.90
19763;BME280;10040;42.614;23.164;2022-07-21T10:16:17;92881.25;;;30.17;35.48
19763;BME280;10040;42.614;23.164;2022-07-21T10:18:58;92889.84;;;30.32;34.24
19763;BME280;10040;42.614;23.164;2022-07-21T10:21:35;92880.25;;;30.46;36.18
19763;BME280;10040;42.614;23.164;2022-07-21T10:24:04;92870.84;;;30.84;33.85
19763;BME280;10040;42.614;23.164;2022-07-21T10:26:32;92864.72;;;30.67;34.84
19763;BME280;10040;42.614;23.164;2022-07-21T10:28:59;92860.84;;;30.96;31.92
19763;BME280;10040;42.614;23.164;2022-07-21T10:31:27;92861.25;;;31.26;35.60
19763;BME280;10040;42.614;23.164;2022-07-21T10:33:58;92855.84;;;31.41;32.78
19763;BME280;10040;42.614;23.164;2022-07-21T10:36:49;92850.22;;;30.41;33.30
19763;BME280;10040;42.614;23.164;2022-07-21T10:39:24;92847.56;;;30.37;34.91
19763;BME280;10040;42.614;23.164;2022-07-21T10:41:55;92861.22;;;30.44;33.62
19763;BME280;10040;42.614;23.164;2022-07-21T10:44:53;92846.81;;;30.68;34.67
19763;BME280;10040;42.614;23.164;2022-07-21T10:47:21;92849.00;;;30.83;34.30
19763;BME280;10040;42.614;23.164;2022-07-21T10:49:57;92846.88;;;31.36;31.87
19763;BME280;10040;42.614;23.164;2022-07-21T10:55:36;92849.84;;;30.61;31.72
19763;BME280;10040;42.614;23.164;2022-07-21T10:58:23;92841.00;;;30.85;32.24
19763;BME280;10040;42.614;23.164;2022-07-21T11:00:52;92845.09;;;30.71;30.35
19763;BME280;10040;42.614;23.164;2022-07-21T11:03:25;92846.16;;;30.33;32.01
19763;BME280;10040;42.614;23.164;2022-07-21T11:06:16;92841.50;;;30.61;30.73
19763;BME280;10040;42.614;23.164;2022-07-21T11:08:45;92838.03;;;31.20;31.80
19763;BME280;10040;42.614;23.164;2022-07-21T11:11:14;92834.94;;;30.77;29.59
19763;BME280;10040;42.614;23.164;2022-07-21T11:14:03;92833.94;;;30.08;31.06
19763;BME280;10040;42.614;23.164;2022-07-21T11:16:58;92831.31;;;30.67;31.83
19763;BME280;10040;42.614;23.164;2022-07-21T11:19:30;92829.53;;;30.83;29.80
19763;BME280;10040;42.614;23.164;2022-07-21T11:22:01;92833.25;;;31.39;30.02
19763;BME280;10040;42.614;23.164;2022-07-21T11:24:29;92814.22;;;31.37;32.00
19763;BME280;10040;42.614;23.164;2022-07-21T11:26:58;92828.81;;;31.69;34.57
19763;BME280;10040;42.614;23.164;2022-07-21T11:29:27;92823.25;;;31.97;29.71
19763;BME280;10040;42.614;23.164;2022-07-21T11:31:56;92827.72;;;31.76;30.07
19763;BME280;10040;42.614;23.164;2022-07-21T11:34:24;92823.88;;;31.54;31.12
19763;BME280;10040;42.614;23.164;2022-07-21T11:37:01;92831.59;;;31.87;32.06
19763;BME280;10040;42.614;23.164;2022-07-21T11:39:29;92817.50;;;31.82;30.42
19763;BME280;10040;42.614;23.164;2022-07-21T11:42:01;92818.31;;;31.73;30.89
19763;BME280;10040;42.614;23.164;2022-07-21T11:44:29;92820.44;;;32.06;29.47
19763;BME280;10040;42.614;23.164;2022-07-21T11:46:57;92820.91;;;32.23;28.14
19763;BME280;10040;42.614;23.164;2022-07-21T11:49:26;92791.47;;;32.03;29.13
19763;BME280;10040;42.614;23.164;2022-07-21T11:51:54;92801.66;;;31.32;30.23
19763;BME280;10040;42.614;23.164;2022-07-21T11:54:28;92815.81;;;31.75;31.96
19763;BME280;10040;42.614;23.164;2022-07-21T11:56:56;92797.75;;;32.41;28.91
19763;BME280;10040;42.614;23.164;2022-07-21T11:59:24;92810.56;;;31.68;28.81
19763;BME280;10040;42.614;23.164;2022-07-21T12:01:54;92807.09;;;31.36;28.74
19763;BME280;10040;42.614;23.164;2022-07-21T12:04:37;92807.75;;;31.77;29.47
19763;BME280;10040;42.614;23.164;2022-07-21T12:07:10;92812.69;;;32.01;29.67
19763;BME280;10040;42.614;23.164;2022-07-21T12:09:40;92812.72;;;32.10;28.80
19763;BME280;10040;42.614;23.164;2022-07-21T12:12:07;92798.47;;;31.89;30.52
19763;BME280;10040;42.614;23.164;2022-07-21T12:14:42;92817.91;;;32.36;31.14
19763;BME280;10040;42.614;23.164;2022-07-21T12:17:10;92816.69;;;32.37;31.01
19763;BME280;10040;42.614;23.164;2022-07-21T12:19:38;92811.66;;;32.59;29.71
19763;BME280;10040;42.614;23.164;2022-07-21T12:22:06;92804.19;;;32.75;29.97
19763;BME280;10040;42.614;23.164;2022-07-21T12:24:54;92803.66;;;32.86;29.44
19763;BME280;10040;42.614;23.164;2022-07-21T12:27:23;92801.91;;;32.45;31.63
19763;BME280;10040;42.614;23.164;2022-07-21T12:29:50;92801.13;;;32.54;30.71
19763;BME280;10040;42.614;23.164;2022-07-21T12:32:37;92793.16;;;32.01;32.90
19763;BME280;10040;42.614;23.164;2022-07-21T12:35:05;92805.03;;;32.48;31.80
19763;BME280;10040;42.614;23.164;2022-07-21T12:38:02;92791.97;;;32.54;30.74
19763;BME280;10040;42.614;23.164;2022-07-21T12:40:33;92783.59;;;32.63;29.77
19763;BME280;10040;42.614;23.164;2022-07-21T12:43:06;92785.69;;;32.77;30.56
19763;BME280;10040;42.614;23.164;2022-07-21T12:45:46;92796.06;;;32.86;30.04
19763;BME280;10040;42.614;23.164;2022-07-21T12:48:15;92780.19;;;32.92;29.03
19763;BME280;10040;42.614;23.164;2022-07-21T12:51:00;92784.75;;;32.80;31.07
19763;BME280;10040;42.614;23.164;2022-07-21T12:53:29;92781.91;;;32.56;30.71
19763;BME280;10040;42.614;23.164;2022-07-21T12:55:58;92769.59;;;32.30;31.65
19763;BME280;10040;42.614;23.164;2022-07-21T12:58:26;92773.66;;;32.10;32.23
19763;BME280;10040;42.614;23.164;2022-07-21T13:00:54;92769.47;;;32.67;31.83
19763;BME280;10040;42.614;23.164;2022-07-21T13:03:22;92776.63;;;32.92;32.26
19763;BME280;10040;42.614;23.164;2022-07-21T13:05:49;92775.06;;;32.91;30.54